Time;durP1;ratioP1;P1;durP2;ratioP2;P2;SDS_P1;SDS_P2;PMS_P1;PMS_P2;Temp;Humidity;BMP_temperature;BMP_pressure;BME280_temperature;BME280_humidity;BME280_pressure;Samples;Min_cycle;Max_cycle;Signal;HPM_P1;HPM_P2
2023/05/02 00:03:41;;;;;;;1.37;1.27;;;;;;;17.90;56.27;96798.13;10408343;28;20040;-31
2023/05/02 00:08:41;;;;;;;1.35;1.15;;;;;;;17.90;56.26;96792.25;10408852;28;20371;-31
2023/05/02 00:13:42;;;;;;;0.88;0.85;;;;;;;17.90;56.08;96797.31;10407762;28;20104;-30
2023/05/02 00:18:43;;;;;;;1.58;1.48;;;;;;;17.88;56.34;96802.34;10408306;28;20415;-30
2023/05/02 00:23:43;;;;;;;2.47;1.80;;;;;;;18.06;62.93;96806.63;10407554;28;20047;-30
2023/05/02 00:28:43;;;;;;;2.27;2.07;;;;;;;18.08;65.68;96799.91;10400485;28;20033;-31
2023/05/02 00:33:44;;;;;;;4.80;2.27;;;;;;;18.07;62.86;96799.03;10405952;28;20059;-31
2023/05/02 00:38:45;;;;;;;2.03;1.53;;;;;;;18.00;58.98;96811.69;10408440;28;20033;-30
2023/05/02 00:43:45;;;;;;;1.30;1.20;;;;;;;17.94;57.92;96809.13;10398583;28;20042;-30
2023/05/02 00:48:45;;;;;;;1.80;1.70;;;;;;;17.91;57.43;96812.50;10399442;28;20041;-30
2023/05/02 00:53:46;;;;;;;1.83;1.40;;;;;;;17.89;57.17;96806.59;10407368;28;20288;-32
2023/05/02 00:58:47;;;;;;;2.55;1.30;;;;;;;17.88;56.73;96804.88;10407402;28;20120;-31
2023/05/02 01:04:16;;;;;;;2.47;1.23;;;;;;;17.88;56.99;96816.69;10406006;28;20116;-31
2023/05/02 01:09:41;;;;;;;1.38;1.27;;;;;;;17.88;56.48;96811.63;10403790;28;20433;-31
2023/05/02 01:14:44;;;;;;;1.25;1.08;;;;;;;17.87;56.45;96813.34;10414016;28;20033;-31
2023/05/02 01:19:56;;;;;;;1.30;1.20;;;;;;;17.87;56.39;96812.47;10414585;28;20040;-30
2023/05/02 01:25:15;;;;;;;1.10;1.00;;;;;;;17.87;56.55;96820.06;10405211;28;20099;-30
2023/05/02 01:30:19;;;;;;;5.38;1.60;;;;;;;17.98;61.88;96826.03;10410592;28;20026;-31
2023/05/02 01:35:21;;;;;;;2.30;1.90;;;;;;;18.07;63.89;96819.31;10413729;28;20021;-30
2023/05/02 01:40:24;;;;;;;2.30;1.92;;;;;;;18.08;63.24;96825.22;10412270;28;20037;-31
2023/05/02 01:45:26;;;;;;;1.92;1.70;;;;;;;17.98;60.95;96818.44;10411497;28;20034;-31
2023/05/02 01:50:27;;;;;;;3.20;1.95;;;;;;;17.93;58.36;96820.94;10412721;28;20115;-31
2023/05/02 01:55:28;;;;;;;1.70;1.60;;;;;;;17.91;57.81;96824.31;10413068;28;20029;-32
2023/05/02 02:00:31;;;;;;;1.77;1.50;;;;;;;17.89;57.53;96824.31;10412938;28;20496;-31
2023/05/02 02:05:33;;;;;;;1.17;1.08;;;;;;;17.88;57.23;96825.16;10411823;28;20041;-31
2023/05/02 02:10:43;;;;;;;1.48;1.38;;;;;;;17.86;56.59;96825.97;10411108;28;20507;-32
2023/05/02 02:15:48;;;;;;;1.17;1.10;;;;;;;17.87;57.14;96825.13;10410083;28;20515;-33
2023/05/02 02:20:50;;;;;;;1.30;1.20;;;;;;;17.85;56.55;96827.69;10395205;28;20110;-31
2023/05/02 02:25:53;;;;;;;2.00;1.13;;;;;;;17.85;56.40;96837.81;10410406;28;20042;-32
2023/05/02 02:30:53;;;;;;;1.17;1.08;;;;;;;17.84;56.31;96827.66;10411561;28;20041;-31
2023/05/02 02:36:01;;;;;;;1.88;1.70;;;;;;;17.85;57.26;96830.22;10411851;28;20400;-31
2023/05/02 02:41:10;;;;;;;2.05;1.58;;;;;;;18.02;61.97;96837.88;10412470;28;20115;-31
2023/05/02 02:46:30;;;;;;;2.60;2.40;;;;;;;18.07;64.67;96833.69;10410434;28;20431;-31
2023/05/02 02:51:59;;;;;;;2.40;1.83;;;;;;;18.02;62.16;96840.41;10411638;28;20063;-31
2023/05/02 02:57:28;;;;;;;2.70;1.88;;;;;;;17.93;59.57;96840.38;10380447;28;20467;-31
2023/05/02 03:02:31;;;;;;;1.40;1.30;;;;;;;17.90;58.00;96853.03;10398430;28;20128;-33
2023/05/02 03:07:32;;;;;;;1.25;1.13;;;;;;;17.88;57.51;96857.22;10410529;28;20029;-30
2023/05/02 03:12:35;;;;;;;1.50;1.40;;;;;;;17.86;57.54;96859.75;10409630;28;20036;-31
2023/05/02 03:17:37;;;;;;;1.15;1.05;;;;;;;17.85;56.85;96853.00;10408399;28;20037;-31
2023/05/02 03:22:37;;;;;;;1.25;1.15;;;;;;;17.84;56.32;96865.66;10406622;28;20029;-31
2023/05/02 03:27:38;;;;;;;1.30;1.20;;;;;;;17.83;56.71;96863.97;10409852;28;20405;-31
2023/05/02 03:32:42;;;;;;;1.60;1.10;;;;;;;17.83;56.60;96861.44;10399981;28;20397;-31
2023/05/02 03:37:44;;;;;;;2.05;1.20;;;;;;;17.82;56.17;96872.41;10407779;28;20040;-31
2023/05/02 03:42:47;;;;;;;1.77;1.35;;;;;;;17.81;56.56;96885.88;10407991;28;20029;-31
2023/05/02 03:47:57;;;;;;;2.85;1.60;;;;;;;17.96;62.10;96896.09;10401188;28;20037;-31
2023/05/02 03:52:58;;;;;;;2.30;2.10;;;;;;;18.03;65.01;96903.75;10407519;28;20032;-31
2023/05/02 03:58:09;;;;;;;2.80;1.98;;;;;;;18.00;62.30;96903.72;10407223;28;20089;-31
2023/05/02 04:03:10;;;;;;;1.33;1.20;;;;;;;17.96;56.82;96911.28;10406721;28;20128;-31
2023/05/02 04:08:14;;;;;;;1.52;1.42;;;;;;;17.96;57.44;96927.34;10407478;28;20126;-31
2023/05/02 04:13:15;;;;;;;1.10;1.00;;;;;;;17.95;56.66;96929.88;10402802;28;20026;-31
2023/05/02 04:18:19;;;;;;;1.55;1.15;;;;;;;17.96;56.37;96939.16;10407165;28;20120;-31
2023/05/02 04:23:20;;;;;;;1.35;1.25;;;;;;;17.94;56.32;96940.84;10406405;28;20033;-31
2023/05/02 04:28:23;;;;;;;2.78;1.17;;;;;;;17.91;56.07;96948.44;10403085;28;20036;-31
2023/05/02 04:33:23;;;;;;;1.48;1.20;;;;;;;17.95;56.10;96960.28;10408082;28;20493;-31
2023/05/02 04:38:26;;;;;;;1.25;1.15;;;;;;;17.95;55.93;96945.06;10406416;28;20065;-30
2023/05/02 04:43:27;;;;;;;1.20;0.80;;;;;;;17.96;55.74;96946.75;10405463;28;20045;-31
2023/05/02 04:48:32;;;;;;;1.20;1.10;;;;;;;17.97;55.33;96958.59;10413854;28;20120;-31
2023/05/02 04:53:33;;;;;;;3.25;2.00;;;;;;;17.92;59.93;96955.19;10415383;28;20033;-31
2023/05/02 04:58:36;;;;;;;2.85;2.10;;;;;;;17.82;59.21;96958.50;10415119;28;20091;-31
2023/05/02 05:03:40;;;;;;;2.90;1.73;;;;;;;17.98;58.05;96957.78;10414343;28;20031;-31
2023/05/02 05:08:44;;;;;;;4.03;2.40;;;;;;;17.62;58.81;96965.09;10408545;28;20124;-30
2023/05/02 05:13:45;;;;;;;10.18;3.20;;;;;;;17.64;58.50;96968.50;10412784;28;20513;-31
2023/05/02 05:18:48;;;;;;;6.70;2.13;;;;;;;17.84;57.27;96970.31;10414060;28;20037;-30
2023/05/02 05:23:48;;;;;;;14.55;3.28;;;;;;;17.88;57.85;96978.78;10412556;28;20033;-31
2023/05/02 05:28:56;;;;;;;6.82;3.00;;;;;;;17.69;59.45;96993.03;10407846;28;20091;-31
2023/05/02 05:34:01;;;;;;;7.25;2.70;;;;;;;17.53;58.24;97003.03;10425931;28;20032;-31
2023/05/02 05:39:02;;;;;;;5.53;2.40;;;;;;;17.47;59.33;97005.50;10403471;28;20068;-31
2023/05/02 05:44:05;;;;;;;3.35;2.70;;;;;;;17.57;59.40;97017.41;10395730;28;20385;-30
2023/05/02 05:49:05;;;;;;;4.95;2.47;;;;;;;17.73;57.87;97026.81;10412132;28;20029;-30
2023/05/02 05:54:06;;;;;;;9.00;3.15;;;;;;;17.78;57.18;97027.69;10411474;28;20029;-31
2023/05/02 05:59:07;;;;;;;3.42;2.67;;;;;;;17.37;58.75;97034.94;10412276;28;20045;-31
2023/05/02 06:04:08;;;;;;;5.18;2.50;;;;;;;17.62;58.36;97031.81;10412699;28;20033;-30
2023/05/02 06:09:11;;;;;;;6.05;3.17;;;;;;;17.74;59.46;97031.88;10409769;28;20053;-32
2023/05/02 06:14:12;;;;;;;6.53;3.72;;;;;;;17.83;59.48;97042.09;10410599;28;20061;-31
2023/05/02 06:19:14;;;;;;;4.30;1.90;;;;;;;17.86;56.99;97043.78;10411868;28;20037;-31
2023/05/02 06:24:14;;;;;;;2.53;1.95;;;;;;;17.84;56.37;97042.94;10411707;28;20033;-32
2023/05/02 06:29:14;;;;;;;2.87;2.00;;;;;;;17.85;56.28;97054.78;10404973;28;20042;-31
2023/05/02 06:34:15;;;;;;;9.00;2.10;;;;;;;17.85;56.05;97052.22;10412177;28;20543;-30
2023/05/02 06:39:15;;;;;;;2.67;1.77;;;;;;;17.84;55.75;97061.50;10411573;28;20516;-31
2023/05/02 06:44:15;;;;;;;2.40;1.63;;;;;;;17.87;55.81;97058.16;10411050;28;20435;-31
2023/05/02 06:49:16;;;;;;;2.17;1.40;;;;;;;17.84;55.71;97058.97;10411883;28;20032;-30
2023/05/02 06:54:16;;;;;;;2.40;1.60;;;;;;;17.86;55.73;97064.06;10404867;28;20801;-30
2023/05/02 06:59:17;;;;;;;3.35;1.27;;;;;;;17.85;55.64;97070.81;10410681;28;20041;-31
2023/05/02 07:04:17;;;;;;;1.60;1.47;;;;;;;17.85;55.51;97075.91;10410745;28;20342;-31
2023/05/02 07:09:18;;;;;;;2.40;1.50;;;;;;;17.85;55.57;97082.63;10409451;28;20397;-31
2023/05/02 07:14:18;;;;;;;8.90;2.20;;;;;;;17.93;60.96;97078.47;10409499;28;20026;-31
2023/05/02 07:19:18;;;;;;;3.43;2.40;;;;;;;17.96;61.15;97075.94;10410699;28;20040;-31
2023/05/02 07:24:19;;;;;;;1.67;1.43;;;;;;;17.92;58.15;97076.78;10409594;28;20112;-30
2023/05/02 07:29:19;;;;;;;1.53;1.43;;;;;;;17.87;56.88;97073.34;10409425;28;20803;-32
2023/05/02 07:34:19;;;;;;;2.17;1.93;;;;;;;17.86;56.01;97076.72;10409646;28;20562;-31
2023/05/02 07:39:20;;;;;;;2.17;1.60;;;;;;;17.85;56.06;97072.50;10409780;28;20369;-31
2023/05/02 07:44:20;;;;;;;1.30;1.20;;;;;;;17.84;55.81;97075.88;10408406;28;20030;-31
2023/05/02 07:49:21;;;;;;;2.55;1.10;;;;;;;17.84;55.62;97073.34;10410290;28;20091;-31
2023/05/02 07:54:21;;;;;;;1.50;1.27;;;;;;;17.83;55.58;97082.59;10408834;28;20060;-31
2023/05/02 07:59:22;;;;;;;1.48;1.38;;;;;;;17.81;55.45;97084.28;10408617;28;20083;-31
2023/05/02 08:04:22;;;;;;;1.20;0.90;;;;;;;17.81;55.73;97088.50;10409085;28;20071;-31
2023/05/02 08:09:23;;;;;;;1.70;1.20;;;;;;;17.79;55.41;97085.09;10409211;28;20086;-31
2023/05/02 08:14:23;;;;;;;1.23;1.13;;;;;;;17.81;55.37;97085.94;10407948;28;20413;-30
2023/05/02 08:19:24;;;;;;;2.40;2.00;;;;;;;17.89;60.52;97092.78;10408556;28;20276;-31
2023/05/02 08:24:24;;;;;;;3.65;2.22;;;;;;;17.94;61.18;97086.09;10407826;28;20029;-31
2023/05/02 08:29:24;;;;;;;2.83;2.13;;;;;;;17.96;60.23;97101.28;10407844;28;20107;-31
2023/05/02 08:34:25;;;;;;;2.53;1.50;;;;;;;17.90;57.70;97103.78;10408250;28;20034;-31
2023/05/02 08:39:25;;;;;;;1.75;1.40;;;;;;;17.85;56.73;97108.81;10405697;28;20287;-32
2023/05/02 08:44:26;;;;;;;1.60;1.30;;;;;;;17.84;56.20;97113.88;10407180;28;20025;-31
2023/05/02 08:49:30;;;;;;;0.80;0.80;;;;;;;17.81;56.08;97113.81;10408231;28;20046;-31
2023/05/02 08:54:31;;;;;;;1.08;0.90;;;;;;;17.81;55.86;97123.94;10406427;28;20516;-31
2023/05/02 08:59:31;;;;;;;1.30;1.20;;;;;;;17.81;55.88;97118.88;10399925;28;20033;-31
2023/05/02 09:04:33;;;;;;;1.07;0.97;;;;;;;17.80;55.60;97128.19;10407663;28;20049;-31
2023/05/02 09:09:34;;;;;;;1.30;1.20;;;;;;;17.80;55.89;97124.78;10400480;28;20493;-30
2023/05/02 09:14:34;;;;;;;1.17;1.07;;;;;;;17.79;55.57;97125.63;10399492;28;20026;-31
2023/05/02 09:19:34;;;;;;;0.93;0.82;;;;;;;17.79;55.39;97125.63;10407460;28;20288;-31
2023/05/02 09:24:37;;;;;;;1.40;1.03;;;;;;;17.77;55.42;97117.16;10407583;28;20039;-31
2023/05/02 09:29:39;;;;;;;2.72;2.05;;;;;;;17.90;60.52;97129.13;10407146;28;20311;-30
2023/05/02 09:35:00;;;;;;;2.47;2.10;;;;;;;17.95;60.82;97137.59;10414101;28;20033;-30
2023/05/02 09:40:05;;;;;;;3.17;1.80;;;;;;;17.93;59.71;97132.50;10414021;28;20037;-30
2023/05/02 09:45:06;;;;;;;1.25;1.15;;;;;;;17.86;56.82;97122.31;10405626;28;20523;-31
2023/05/02 09:50:10;;;;;;;1.30;1.10;;;;;;;17.81;55.95;97123.94;10414278;28;20033;-31
2023/05/02 09:55:20;;;;;;;0.88;0.88;;;;;;;17.78;55.71;97121.41;10413114;28;20507;-31
2023/05/02 10:00:20;;;;;;;1.25;1.13;;;;;;;17.79;55.54;97120.56;10406133;28;20033;-30
2023/05/02 10:05:21;;;;;;;1.10;1.00;;;;;;;17.79;55.56;97126.47;10413020;28;20127;-30
2023/05/02 10:10:22;;;;;;;1.13;1.00;;;;;;;17.80;55.42;97122.25;10406980;28;20033;-31
2023/05/02 10:15:27;;;;;;;1.08;1.00;;;;;;;17.84;55.15;97129.06;10412097;28;20061;-31
2023/05/02 10:20:36;;;;;;;2.05;1.00;;;;;;;17.86;55.09;97133.31;10412993;28;20045;-31
2023/05/02 10:25:37;;;;;;;1.55;0.95;;;;;;;17.85;54.99;97130.75;10411964;28;20121;-31
2023/05/02 10:30:38;;;;;;;1.13;1.02;;;;;;;17.84;55.26;97118.94;10411753;28;20135;-30
2023/05/02 10:35:44;;;;;;;1.38;1.25;;;;;;;17.89;58.47;97119.78;10412078;28;20036;-35
2023/05/02 10:40:54;;;;;;;2.10;1.88;;;;;;;17.97;60.79;97110.56;10410780;28;20556;-30
2023/05/02 10:45:55;;;;;;;1.60;1.50;;;;;;;17.97;60.76;97111.44;10410856;28;20452;-30
2023/05/02 10:50:59;;;;;;;1.30;1.20;;;;;;;17.92;57.01;97109.72;10411809;28;20043;-31
2023/05/02 10:56:24;;;;;;;1.30;1.20;;;;;;;17.87;55.72;97097.00;10411009;28;20028;-30
2023/05/02 11:01:28;;;;;;;1.80;1.50;;;;;;;17.85;55.37;97100.34;10410520;28;20056;-31
2023/05/02 11:06:32;;;;;;;0.90;0.90;;;;;;;17.84;55.31;97101.19;10410984;28;20116;-31
2023/05/02 11:11:42;;;;;;;1.90;0.90;;;;;;;17.84;55.63;97098.66;10410453;28;20103;-30
2023/05/02 11:17:03;;;;;;;1.05;0.98;;;;;;;17.83;55.28;97102.03;10409510;28;20043;-31
2023/05/02 11:22:18;;;;;;;0.85;0.85;;;;;;;17.81;55.71;97099.47;10403655;28;20041;-31
2023/05/02 11:27:28;;;;;;;1.33;1.00;;;;;;;17.83;55.54;97102.03;10411189;28;20038;-31
2023/05/02 11:32:48;;;;;;;0.95;0.90;;;;;;;17.84;55.54;97102.03;10401561;28;20033;-31
2023/05/02 11:37:58;;;;;;;3.35;1.80;;;;;;;17.82;55.45;97096.09;10409688;28;20090;-31
2023/05/02 11:43:00;;;;;;;2.45;1.83;;;;;;;17.83;56.71;97096.97;10401674;28;20072;-31
2023/05/02 11:48:02;;;;;;;1.98;1.88;;;;;;;17.96;62.39;97103.81;10409428;28;20040;-31
2023/05/02 11:53:02;;;;;;;2.42;2.05;;;;;;;18.00;62.69;97082.75;10408502;28;20076;-30
2023/05/02 11:58:03;;;;;;;1.87;1.70;;;;;;;17.98;59.75;97079.38;10408210;28;20067;-31
2023/05/02 12:03:05;;;;;;;7.80;4.20;;;;;;;17.91;56.62;97080.16;10408923;28;20573;-31
2023/05/02 12:08:05;;;;;;;24.23;5.20;;;;;;;17.89;56.80;97082.66;10401878;28;20037;-30
2023/05/02 12:13:05;;;;;;;15.47;4.17;;;;;;;17.89;56.38;97081.81;10407847;28;20037;-31
2023/05/02 12:18:06;;;;;;;14.10;3.17;;;;;;;17.89;56.25;97091.94;10409458;28;20036;-31
2023/05/02 12:23:08;;;;;;;4.22;2.78;;;;;;;17.97;57.99;97095.38;10408603;28;20033;-31
2023/05/02 12:28:09;;;;;;;7.38;4.32;;;;;;;18.02;55.62;97084.47;10407585;28;20398;-31
2023/05/02 12:33:10;;;;;;;4.90;3.03;;;;;;;17.91;55.76;97087.75;10408017;28;20116;-30
2023/05/02 12:38:14;;;;;;;8.02;3.33;;;;;;;17.89;55.72;97092.78;10405887;28;20089;-30
2023/05/02 12:43:15;;;;;;;4.35;2.90;;;;;;;17.87;56.15;97078.41;10404736;28;20030;-31
2023/05/02 12:48:26;;;;;;;7.30;3.70;;;;;;;17.87;56.17;97073.34;10403149;28;20040;-31
2023/05/02 12:53:42;;;;;;;4.95;3.28;;;;;;;17.92;58.39;97086.91;10403258;28;20034;-31
2023/05/02 12:58:45;;;;;;;4.15;3.40;;;;;;;18.00;59.64;97080.22;10405972;28;20120;-31
2023/05/02 13:03:45;;;;;;;5.82;3.88;;;;;;;18.03;57.68;97072.63;10407496;28;20049;-32
2023/05/02 13:08:45;;;;;;;6.20;3.65;;;;;;;17.97;56.27;97070.91;10413554;28;20033;-31
2023/05/02 13:13:46;;;;;;;5.60;4.70;;;;;;;17.97;54.31;97075.13;10414281;28;20041;-30
2023/05/02 13:18:46;;;;;;;6.87;4.67;;;;;;;17.94;53.99;97086.09;10415631;28;20424;-30
2023/05/02 13:23:49;;;;;;;5.97;4.63;;;;;;;17.89;54.83;97071.66;10414400;28;20044;-31
2023/05/02 13:28:49;;;;;;;5.57;4.10;;;;;;;18.06;53.30;97075.19;10407464;28;20037;-31
2023/05/02 13:33:49;;;;;;;8.73;4.27;;;;;;;17.99;54.77;97081.06;10414165;28;20025;-32
2023/05/02 13:38:50;;;;;;;4.10;3.67;;;;;;;18.09;52.73;97060.84;10414278;28;20307;-30
2023/05/02 13:43:50;;;;;;;9.57;4.07;;;;;;;18.08;53.70;97063.38;10406429;28;20042;-31
2023/05/02 13:48:50;;;;;;;9.37;4.00;;;;;;;17.96;55.11;97059.09;10414437;28;20041;-31
2023/05/02 13:53:51;;;;;;;5.87;3.30;;;;;;;17.90;55.18;97063.25;10408474;28;20083;-30
2023/05/02 13:58:51;;;;;;;4.55;3.13;;;;;;;17.88;55.51;97063.25;10404959;28;20037;-30
2023/05/02 14:03:52;;;;;;;5.50;3.08;;;;;;;18.01;54.52;97056.56;10414216;28;20501;-31
2023/05/02 14:08:52;;;;;;;5.80;3.00;;;;;;;18.10;53.56;97056.66;10413749;28;20485;-30
2023/05/02 14:13:53;;;;;;;4.07;3.47;;;;;;;18.08;54.51;97053.25;10412431;28;20427;-30
2023/05/02 14:18:54;;;;;;;3.00;2.72;;;;;;;17.96;54.90;97058.22;10413320;28;20041;-30
2023/05/02 14:23:54;;;;;;;3.35;3.03;;;;;;;17.92;55.17;97047.22;10412216;28;20121;-31
2023/05/02 14:28:55;;;;;;;5.80;2.90;;;;;;;17.90;55.38;97068.34;10404979;28;20119;-30
2023/05/02 14:33:55;;;;;;;3.65;2.65;;;;;;;17.91;55.72;97072.56;10412336;28;20025;-31
2023/05/02 14:38:56;;;;;;;3.07;2.70;;;;;;;17.88;55.43;97072.50;10409058;28;20037;-31
2023/05/02 14:43:56;;;;;;;3.93;2.60;;;;;;;17.88;55.36;97069.97;10409478;28;20033;-31
2023/05/02 14:48:57;;;;;;;4.73;2.50;;;;;;;17.86;55.51;97071.66;10411554;28;20829;-32
2023/05/02 14:53:57;;;;;;;4.20;2.20;;;;;;;17.86;55.72;97059.00;10411001;28;20029;-30
2023/05/02 14:58:58;;;;;;;4.83;2.57;;;;;;;17.81;55.65;97058.09;10410544;28;20543;-30
2023/05/02 15:03:59;;;;;;;2.55;2.35;;;;;;;17.83;55.48;97058.97;10411175;28;20037;-31
2023/05/02 15:09:00;;;;;;;4.90;2.75;;;;;;;17.84;55.74;97068.28;10410739;28;20029;-30
2023/05/02 15:14:01;;;;;;;3.88;2.95;;;;;;;18.02;55.39;97070.94;10408717;28;20060;-30
2023/05/02 15:19:01;;;;;;;3.73;2.17;;;;;;;18.12;55.37;97081.16;10406423;28;20048;-30
2023/05/02 15:24:02;;;;;;;2.87;2.47;;;;;;;18.04;55.33;97081.94;10408506;28;20423;-30
2023/05/02 15:29:03;;;;;;;2.40;1.90;;;;;;;17.93;54.80;97081.00;10408526;28;20477;-32
2023/05/02 15:34:03;;;;;;;3.63;2.30;;;;;;;17.88;55.38;97088.56;10410196;28;20131;-30
2023/05/02 15:39:03;;;;;;;5.40;1.90;;;;;;;17.86;55.42;97086.84;10409758;28;20093;-31
2023/05/02 15:44:04;;;;;;;6.57;2.03;;;;;;;17.83;55.39;97087.66;10408898;28;20382;-32
2023/05/02 15:49:04;;;;;;;2.47;1.80;;;;;;;17.82;55.42;97088.50;10410018;28;20037;-31
2023/05/02 15:54:05;;;;;;;2.57;1.83;;;;;;;17.80;55.66;97089.31;10408903;28;20030;-31
2023/05/02 15:59:06;;;;;;;1.85;1.63;;;;;;;17.81;55.61;97096.09;10408799;28;20141;-30
2023/05/02 16:04:08;;;;;;;2.17;1.80;;;;;;;17.79;55.31;97090.16;10409434;28;20124;-32
2023/05/02 16:09:09;;;;;;;2.38;2.17;;;;;;;17.80;55.37;97096.91;10407056;28;20048;-31
2023/05/02 16:14:09;;;;;;;4.88;1.83;;;;;;;17.77;55.24;97092.72;10407392;28;20034;-29
2023/05/02 16:19:12;;;;;;;4.17;3.30;;;;;;;17.90;56.31;97093.66;10408309;28;20033;-31
2023/05/02 16:24:12;;;;;;;6.25;4.57;;;;;;;18.05;54.13;97106.41;10406412;28;20041;-31
2023/05/02 16:29:13;;;;;;;5.18;3.88;;;;;;;18.09;55.33;97101.38;10407102;28;20563;-31
2023/05/02 16:34:13;;;;;;;9.80;3.53;;;;;;;18.02;55.53;97106.41;10406435;28;20049;-30
2023/05/02 16:39:14;;;;;;;4.32;3.67;;;;;;;17.94;55.77;97106.34;10406914;28;20037;-32
2023/05/02 16:44:14;;;;;;;13.20;4.97;;;;;;;17.92;55.48;97102.94;10415436;28;20559;-32
2023/05/02 16:49:15;;;;;;;48.30;11.17;;;;;;;17.90;56.13;97108.84;10416813;28;20038;-31
2023/05/02 16:54:16;;;;;;;43.63;11.07;;;;;;;17.91;55.70;97128.28;10413473;28;20725;-30
2023/05/02 16:59:16;;;;;;;21.42;7.88;;;;;;;17.88;55.86;97130.75;10413884;28;20291;-31
2023/05/02 17:04:17;;;;;;;19.47;7.50;;;;;;;17.87;55.79;97129.94;10415704;28;20044;-31
2023/05/02 17:09:17;;;;;;;10.63;6.80;;;;;;;17.86;55.99;97130.78;10415512;28;20152;-31
2023/05/02 17:14:18;;;;;;;9.60;5.60;;;;;;;17.84;55.69;97124.81;10414453;28;20033;-32
2023/05/02 17:19:18;;;;;;;7.40;4.60;;;;;;;17.82;55.83;97130.72;10415756;28;20037;-30
2023/05/02 17:24:20;;;;;;;6.33;4.10;;;;;;;17.82;55.81;97130.72;10412933;28;20042;-31
2023/05/02 17:29:20;;;;;;;10.32;4.55;;;;;;;17.96;58.93;97141.81;10414203;28;20497;-31
2023/05/02 17:34:25;;;;;;;8.23;4.53;;;;;;;18.03;59.19;97141.91;10414849;28;20041;-31
2023/05/02 17:39:25;;;;;;;4.72;3.90;;;;;;;18.03;58.21;97151.16;10414058;28;20037;-32
2023/05/02 17:44:26;;;;;;;3.23;2.50;;;;;;;17.94;56.32;97153.63;10413408;28;20033;-31
2023/05/02 17:49:26;;;;;;;5.63;2.67;;;;;;;17.90;56.01;97167.13;10414618;28;20120;-31
2023/05/02 17:54:27;;;;;;;4.40;2.45;;;;;;;17.87;55.90;97177.19;10411925;28;20287;-31
2023/05/02 17:59:27;;;;;;;6.13;2.50;;;;;;;17.84;55.88;97179.72;10411473;28;20041;-30
2023/05/02 18:04:28;;;;;;;5.00;2.50;;;;;;;17.81;55.96;97184.72;10412081;28;20032;-31
2023/05/02 18:09:28;;;;;;;5.25;2.20;;;;;;;17.80;55.69;97183.03;10411183;28;20116;-31
2023/05/02 18:14:28;;;;;;;4.43;2.50;;;;;;;17.79;55.58;97189.81;10410186;28;20030;-31
2023/05/02 18:19:29;;;;;;;6.10;2.57;;;;;;;17.77;55.67;97188.94;10408680;28;20112;-30
2023/05/02 18:24:30;;;;;;;3.97;2.50;;;;;;;17.78;55.56;97192.31;10411859;28;20300;-30
2023/05/02 18:29:34;;;;;;;5.22;2.60;;;;;;;17.76;55.68;97202.41;10405932;28;20326;-30
2023/05/02 18:34:35;;;;;;;4.32;2.70;;;;;;;17.76;55.68;97197.34;10406996;28;20083;-31
2023/05/02 18:39:35;;;;;;;5.03;3.97;;;;;;;17.91;60.28;97207.63;10406141;28;20037;-31
2023/05/02 18:44:35;;;;;;;5.70;4.17;;;;;;;18.02;59.52;97215.34;10403829;28;20416;-31
2023/05/02 18:49:36;;;;;;;5.10;3.07;;;;;;;17.98;58.65;97218.69;10408082;28;20095;-31
2023/05/02 18:54:36;;;;;;;3.50;2.77;;;;;;;17.87;57.51;97218.59;10406388;28;20455;-31
2023/05/02 18:59:37;;;;;;;10.30;3.10;;;;;;;17.82;56.22;97226.97;10407271;28;20045;-31
2023/05/02 19:04:38;;;;;;;3.50;2.72;;;;;;;17.79;56.12;97226.94;10405631;28;20132;-31
2023/05/02 19:09:39;;;;;;;3.75;2.28;;;;;;;17.75;55.67;97235.34;10406166;28;20424;-31
2023/05/02 19:14:40;;;;;;;4.28;2.60;;;;;;;17.75;55.76;97238.69;10406358;28;20277;-31
2023/05/02 19:19:40;;;;;;;3.63;2.20;;;;;;;17.74;55.59;97241.25;10406876;28;20044;-30
2023/05/02 19:24:40;;;;;;;2.17;2.00;;;;;;;17.72;55.57;97247.94;10403529;28;20045;-30
2023/05/02 19:29:41;;;;;;;2.20;2.00;;;;;;;17.72;55.50;97246.28;10404938;28;20042;-31
2023/05/02 19:34:41;;;;;;;2.03;1.63;;;;;;;17.71;55.37;97246.25;10404816;28;20038;-31
2023/05/02 19:39:41;;;;;;;2.00;1.80;;;;;;;17.70;55.48;97258.06;10405746;28;20041;-31
2023/05/02 19:44:46;;;;;;;4.13;2.77;;;;;;;17.78;57.47;97270.81;10400809;28;20639;-31
2023/05/02 19:49:49;;;;;;;4.40;3.65;;;;;;;17.93;58.54;97276.06;10407673;28;20087;-32
2023/05/02 19:54:50;;;;;;;4.07;3.67;;;;;;;17.99;58.91;97282.03;10405901;28;20477;-31
2023/05/02 19:59:50;;;;;;;3.30;2.93;;;;;;;17.92;57.43;97279.44;10410876;28;20057;-31
2023/05/02 20:04:50;;;;;;;2.83;2.30;;;;;;;17.84;57.64;97283.56;10409639;28;20037;-31
2023/05/02 20:09:51;;;;;;;2.43;2.00;;;;;;;17.77;56.31;97287.72;10405496;28;20037;-31
2023/05/02 20:14:51;;;;;;;3.73;2.13;;;;;;;17.75;55.88;97296.13;10406261;28;20035;-31
2023/05/02 20:19:51;;;;;;;2.93;2.03;;;;;;;17.74;55.62;97299.50;10406956;28;20148;-30
2023/05/02 20:24:52;;;;;;;2.63;2.30;;;;;;;17.75;55.74;97301.19;10409592;28;20494;-30
2023/05/02 20:29:52;;;;;;;2.10;1.90;;;;;;;17.73;55.51;97307.91;10408389;28;20041;-31
2023/05/02 20:34:52;;;;;;;2.38;2.17;;;;;;;17.72;55.36;97316.31;10408490;28;20029;-31
2023/05/02 20:39:54;;;;;;;3.10;1.75;;;;;;;17.72;55.25;97311.25;10408772;28;20045;-31
2023/05/02 20:44:57;;;;;;;1.90;1.80;;;;;;;17.71;55.64;97310.44;10407387;28;20030;-32
2023/05/02 20:49:57;;;;;;;2.42;1.70;;;;;;;17.70;55.36;97307.88;10407301;28;20033;-31
2023/05/02 20:55:00;;;;;;;4.65;3.15;;;;;;;17.84;58.67;97307.19;10404988;28;20029;-31
2023/05/02 21:00:01;;;;;;;4.13;3.70;;;;;;;17.92;60.79;97304.75;10406774;28;20104;-31
2023/05/02 21:05:02;;;;;;;3.45;3.15;;;;;;;17.95;59.05;97300.59;10408708;28;20029;-31
2023/05/02 21:10:03;;;;;;;8.85;3.10;;;;;;;17.87;59.16;97298.78;10416468;28;20566;-31
2023/05/02 21:15:04;;;;;;;2.17;1.98;;;;;;;17.80;57.70;97300.41;10408417;28;20094;-31
2023/05/02 21:20:06;;;;;;;2.33;2.05;;;;;;;17.77;57.08;97309.66;10408469;28;20029;-31
2023/05/02 21:25:06;;;;;;;3.22;2.30;;;;;;;17.74;56.15;97312.16;10404645;28;20033;-32
2023/05/02 21:30:07;;;;;;;3.42;2.38;;;;;;;17.76;56.23;97313.00;10409357;28;20302;-31
2023/05/02 21:35:08;;;;;;;3.28;2.10;;;;;;;17.77;55.79;97313.03;10414323;28;20562;-31
2023/05/02 21:40:09;;;;;;;2.20;2.00;;;;;;;17.80;55.50;97317.25;10414194;28;20097;-31
2023/05/02 21:45:10;;;;;;;2.47;2.00;;;;;;;17.77;55.48;97313.03;10414102;28;20436;-32
2023/05/02 21:50:10;;;;;;;3.13;2.38;;;;;;;17.77;55.65;97307.97;10414316;28;20396;-31
2023/05/02 21:55:10;;;;;;;2.33;2.13;;;;;;;17.75;55.38;97309.63;10413845;28;20022;-31
2023/05/02 22:00:11;;;;;;;3.45;2.00;;;;;;;17.76;55.79;97303.72;10413091;28;20292;-30
2023/05/02 22:05:12;;;;;;;3.45;3.15;;;;;;;17.91;61.02;97305.59;10413886;28;20041;-31
2023/05/02 22:10:13;;;;;;;4.13;3.17;;;;;;;17.96;60.73;97303.94;10412751;28;20512;-31
2023/05/02 22:15:14;;;;;;;3.08;2.78;;;;;;;17.95;59.42;97304.78;10409727;28;20029;-31
2023/05/02 22:20:14;;;;;;;2.47;2.28;;;;;;;17.87;56.39;97308.91;10413225;28;20040;-30
2023/05/02 22:25:16;;;;;;;3.08;2.00;;;;;;;17.82;56.12;97297.91;10411794;28;20037;-31
2023/05/02 22:30:18;;;;;;;2.33;2.08;;;;;;;17.78;55.87;97296.16;10412226;28;20037;-31
2023/05/02 22:35:18;;;;;;;8.88;2.50;;;;;;;17.78;56.15;97298.69;10412257;28;20036;-31
2023/05/02 22:40:19;;;;;;;1.98;1.88;;;;;;;17.76;55.88;97297.81;10404409;28;20029;-31
2023/05/02 22:45:20;;;;;;;4.07;1.88;;;;;;;17.78;55.60;97301.22;10408261;28;20030;-31
2023/05/02 22:50:20;;;;;;;1.77;1.67;;;;;;;17.74;55.79;97304.56;10411898;28;20571;-31
2023/05/02 22:55:22;;;;;;;4.18;1.92;;;;;;;17.76;55.59;97297.81;10411145;28;20021;-31
2023/05/02 23:00:23;;;;;;;2.08;1.90;;;;;;;17.76;55.80;97308.78;10410815;28;20032;-30
2023/05/02 23:05:24;;;;;;;1.92;1.83;;;;;;;17.75;55.99;97307.09;10411230;28;20040;-31
2023/05/02 23:10:24;;;;;;;3.40;2.67;;;;;;;17.81;58.64;97301.22;10410711;28;20029;-32
2023/05/02 23:15:25;;;;;;;3.63;2.73;;;;;;;17.91;60.92;97303.91;10409685;28;20288;-31
2023/05/02 23:20:25;;;;;;;3.50;3.20;;;;;;;17.95;60.94;97309.84;10411110;28;20742;-31
2023/05/02 23:25:26;;;;;;;2.43;2.23;;;;;;;17.90;59.31;97312.34;10409735;28;20463;-31